sensor_id;sensor_type;location;lat;lon;timestamp;P1;durP1;ratioP1;P2;durP2;ratioP2
8895;SDS011;4484;48.928;10.066;2022-11-03T00:04:09;3.33;;;2.00;;
8895;SDS011;4484;48.928;10.066;2022-11-03T00:06:39;2.47;;;1.73;;
8895;SDS011;4484;48.928;10.066;2022-11-03T00:09:08;1.87;;;1.43;;
8895;SDS011;4484;48.928;10.066;2022-11-03T00:11:37;1.73;;;1.57;;
8895;SDS011;4484;48.928;10.066;2022-11-03T00:14:05;3.70;;;1.90;;
8895;SDS011;4484;48.928;10.066;2022-11-03T00:16:34;4.13;;;1.83;;
8895;SDS011;4484;48.928;10.066;2022-11-03T00:19:01;4.20;;;1.90;;
8895;SDS011;4484;48.928;10.066;2022-11-03T00:21:28;2.27;;;1.73;;
8895;SDS011;4484;48.928;10.066;2022-11-03T00:23:55;2.70;;;1.70;;
8895;SDS011;4484;48.928;10.066;2022-11-03T00:26:26;3.20;;;1.80;;
8895;SDS011;4484;48.928;10.066;2022-11-03T00:28:55;4.57;;;2.20;;
8895;SDS011;4484;48.928;10.066;2022-11-03T00:31:29;3.43;;;1.80;;
8895;SDS011;4484;48.928;10.066;2022-11-03T00:33:57;2.37;;;2.10;;
8895;SDS011;4484;48.928;10.066;2022-11-03T00:36:26;2.10;;;1.77;;
8895;SDS011;4484;48.928;10.066;2022-11-03T00:38:54;2.73;;;1.87;;
8895;SDS011;4484;48.928;10.066;2022-11-03T00:41:22;2.13;;;1.80;;
8895;SDS011;4484;48.928;10.066;2022-11-03T00:43:50;2.30;;;1.83;;
8895;SDS011;4484;48.928;10.066;2022-11-03T00:46:18;1.70;;;1.53;;
8895;SDS011;4484;48.928;10.066;2022-11-03T00:48:46;2.80;;;1.80;;
8895;SDS011;4484;48.928;10.066;2022-11-03T00:51:17;2.50;;;1.70;;
8895;SDS011;4484;48.928;10.066;2022-11-03T00:56:15;1.97;;;1.63;;
8895;SDS011;4484;48.928;10.066;2022-11-03T00:58:50;2.10;;;1.90;;
8895;SDS011;4484;48.928;10.066;2022-11-03T01:01:19;3.43;;;1.80;;
8895;SDS011;4484;48.928;10.066;2022-11-03T01:03:51;1.93;;;1.60;;
8895;SDS011;4484;48.928;10.066;2022-11-03T01:06:38;2.47;;;1.70;;
8895;SDS011;4484;48.928;10.066;2022-11-03T01:14:44;2.07;;;1.40;;
8895;SDS011;4484;48.928;10.066;2022-11-03T01:17:20;1.40;;;1.23;;
8895;SDS011;4484;48.928;10.066;2022-11-03T01:19:49;1.60;;;1.30;;
8895;SDS011;4484;48.928;10.066;2022-11-03T01:22:17;1.73;;;1.10;;
8895;SDS011;4484;48.928;10.066;2022-11-03T01:24:44;1.60;;;1.50;;
8895;SDS011;4484;48.928;10.066;2022-11-03T01:27:13;1.10;;;1.00;;
8895;SDS011;4484;48.928;10.066;2022-11-03T01:29:44;1.40;;;1.30;;
8895;SDS011;4484;48.928;10.066;2022-11-03T01:32:11;1.27;;;1.17;;
8895;SDS011;4484;48.928;10.066;2022-11-03T01:34:38;2.17;;;1.30;;
8895;SDS011;4484;48.928;10.066;2022-11-03T01:37:05;5.10;;;2.73;;
8895;SDS011;4484;48.928;10.066;2022-11-03T01:39:33;5.27;;;1.70;;
8895;SDS011;4484;48.928;10.066;2022-11-03T01:42:00;3.17;;;1.70;;
8895;SDS011;4484;48.928;10.066;2022-11-03T01:44:31;3.03;;;1.83;;
8895;SDS011;4484;48.928;10.066;2022-11-03T01:50:02;3.20;;;1.80;;
8895;SDS011;4484;48.928;10.066;2022-11-03T01:52:36;2.60;;;1.70;;
8895;SDS011;4484;48.928;10.066;2022-11-03T01:55:15;4.20;;;2.53;;
8895;SDS011;4484;48.928;10.066;2022-11-03T01:57:52;2.23;;;1.77;;
8895;SDS011;4484;48.928;10.066;2022-11-03T02:00:20;3.53;;;2.20;;
8895;SDS011;4484;48.928;10.066;2022-11-03T02:02:47;2.20;;;2.00;;
8895;SDS011;4484;48.928;10.066;2022-11-03T02:05:18;4.03;;;2.00;;
8895;SDS011;4484;48.928;10.066;2022-11-03T02:07:50;3.43;;;2.40;;
8895;SDS011;4484;48.928;10.066;2022-11-03T02:10:24;3.77;;;2.50;;
8895;SDS011;4484;48.928;10.066;2022-11-03T02:12:51;3.03;;;2.63;;
8895;SDS011;4484;48.928;10.066;2022-11-03T02:15:18;3.17;;;2.47;;
8895;SDS011;4484;48.928;10.066;2022-11-03T02:17:47;3.80;;;2.80;;
8895;SDS011;4484;48.928;10.066;2022-11-03T02:20:20;4.27;;;3.20;;
8895;SDS011;4484;48.928;10.066;2022-11-03T02:25:54;5.00;;;3.33;;
8895;SDS011;4484;48.928;10.066;2022-11-03T02:28:29;5.33;;;3.30;;
8895;SDS011;4484;48.928;10.066;2022-11-03T02:31:17;4.37;;;2.90;;
8895;SDS011;4484;48.928;10.066;2022-11-03T02:34:05;5.40;;;3.40;;
8895;SDS011;4484;48.928;10.066;2022-11-03T02:36:50;3.47;;;2.77;;
8895;SDS011;4484;48.928;10.066;2022-11-03T02:39:22;3.70;;;2.70;;
8895;SDS011;4484;48.928;10.066;2022-11-03T02:41:55;3.63;;;2.53;;
8895;SDS011;4484;48.928;10.066;2022-11-03T02:44:24;3.73;;;2.50;;
8895;SDS011;4484;48.928;10.066;2022-11-03T02:46:57;3.70;;;2.40;;
8895;SDS011;4484;48.928;10.066;2022-11-03T02:49:27;3.80;;;2.43;;
8895;SDS011;4484;48.928;10.066;2022-11-03T02:52:00;3.90;;;2.53;;
8895;SDS011;4484;48.928;10.066;2022-11-03T02:54:28;2.87;;;2.47;;
8895;SDS011;4484;48.928;10.066;2022-11-03T02:57:12;5.70;;;3.47;;
8895;SDS011;4484;48.928;10.066;2022-11-03T03:00:02;6.93;;;3.20;;
8895;SDS011;4484;48.928;10.066;2022-11-03T03:02:46;3.67;;;2.80;;
8895;SDS011;4484;48.928;10.066;2022-11-03T03:05:21;3.73;;;2.73;;
8895;SDS011;4484;48.928;10.066;2022-11-03T03:07:51;5.93;;;2.50;;
8895;SDS011;4484;48.928;10.066;2022-11-03T03:10:24;4.50;;;3.00;;
8895;SDS011;4484;48.928;10.066;2022-11-03T03:12:56;3.47;;;2.47;;
8895;SDS011;4484;48.928;10.066;2022-11-03T03:15:35;2.70;;;2.27;;
8895;SDS011;4484;48.928;10.066;2022-11-03T03:18:21;2.13;;;1.90;;
8895;SDS011;4484;48.928;10.066;2022-11-03T03:21:12;3.90;;;2.40;;
8895;SDS011;4484;48.928;10.066;2022-11-03T03:23:48;2.77;;;2.50;;
8895;SDS011;4484;48.928;10.066;2022-11-03T03:26:27;3.00;;;2.07;;
8895;SDS011;4484;48.928;10.066;2022-11-03T03:29:02;3.17;;;2.03;;
8895;SDS011;4484;48.928;10.066;2022-11-03T03:31:35;3.13;;;2.53;;
8895;SDS011;4484;48.928;10.066;2022-11-03T03:34:06;4.03;;;2.77;;
8895;SDS011;4484;48.928;10.066;2022-11-03T03:36:54;3.47;;;2.13;;
8895;SDS011;4484;48.928;10.066;2022-11-03T03:39:24;3.17;;;2.33;;
8895;SDS011;4484;48.928;10.066;2022-11-03T03:41:55;2.27;;;1.77;;
8895;SDS011;4484;48.928;10.066;2022-11-03T03:44:23;2.80;;;2.33;;
8895;SDS011;4484;48.928;10.066;2022-11-03T03:46:54;2.63;;;2.07;;
8895;SDS011;4484;48.928;10.066;2022-11-03T03:49:28;2.00;;;1.80;;
8895;SDS011;4484;48.928;10.066;2022-11-03T03:51:55;1.70;;;1.60;;
8895;SDS011;4484;48.928;10.066;2022-11-03T03:54:22;2.17;;;1.60;;
8895;SDS011;4484;48.928;10.066;2022-11-03T03:57:02;2.00;;;1.80;;
8895;SDS011;4484;48.928;10.066;2022-11-03T03:59:30;2.97;;;2.17;;
8895;SDS011;4484;48.928;10.066;2022-11-03T04:01:57;3.87;;;2.93;;
8895;SDS011;4484;48.928;10.066;2022-11-03T04:04:24;3.57;;;2.77;;
8895;SDS011;4484;48.928;10.066;2022-11-03T04:06:51;4.03;;;2.80;;
8895;SDS011;4484;48.928;10.066;2022-11-03T04:09:38;5.33;;;3.23;;
8895;SDS011;4484;48.928;10.066;2022-11-03T04:12:06;4.27;;;2.60;;
8895;SDS011;4484;48.928;10.066;2022-11-03T04:14:52;3.13;;;2.37;;
8895;SDS011;4484;48.928;10.066;2022-11-03T04:17:42;3.03;;;2.37;;
8895;SDS011;4484;48.928;10.066;2022-11-03T04:20:29;3.33;;;2.37;;
8895;SDS011;4484;48.928;10.066;2022-11-03T04:23:15;3.13;;;2.67;;
8895;SDS011;4484;48.928;10.066;2022-11-03T04:25:49;3.07;;;2.20;;
8895;SDS011;4484;48.928;10.066;2022-11-03T04:28:19;5.37;;;3.23;;
8895;SDS011;4484;48.928;10.066;2022-11-03T04:30:46;3.03;;;2.47;;
8895;SDS011;4484;48.928;10.066;2022-11-03T04:33:19;4.20;;;3.10;;
8895;SDS011;4484;48.928;10.066;2022-11-03T04:35:47;4.07;;;3.03;;
8895;SDS011;4484;48.928;10.066;2022-11-03T04:40:43;3.50;;;2.80;;
8895;SDS011;4484;48.928;10.066;2022-11-03T04:43:18;2.93;;;2.40;;
8895;SDS011;4484;48.928;10.066;2022-11-03T04:45:46;4.47;;;2.87;;
8895;SDS011;4484;48.928;10.066;2022-11-03T04:48:15;8.07;;;3.40;;
8895;SDS011;4484;48.928;10.066;2022-11-03T04:50:51;4.00;;;2.70;;
8895;SDS011;4484;48.928;10.066;2022-11-03T04:53:25;3.00;;;2.53;;
8895;SDS011;4484;48.928;10.066;2022-11-03T04:55:55;2.97;;;2.67;;
8895;SDS011;4484;48.928;10.066;2022-11-03T05:00:55;3.50;;;2.67;;
8895;SDS011;4484;48.928;10.066;2022-11-03T05:03:31;2.90;;;2.33;;
8895;SDS011;4484;48.928;10.066;2022-11-03T05:06:01;4.40;;;2.70;;
8895;SDS011;4484;48.928;10.066;2022-11-03T05:08:46;4.90;;;2.60;;
8895;SDS011;4484;48.928;10.066;2022-11-03T05:14:00;5.33;;;3.60;;
8895;SDS011;4484;48.928;10.066;2022-11-03T05:16:29;5.10;;;3.70;;
8895;SDS011;4484;48.928;10.066;2022-11-03T05:18:57;5.80;;;3.87;;
8895;SDS011;4484;48.928;10.066;2022-11-03T05:21:24;10.07;;;5.60;;
8895;SDS011;4484;48.928;10.066;2022-11-03T05:24:02;8.43;;;4.97;;
8895;SDS011;4484;48.928;10.066;2022-11-03T05:26:36;8.23;;;4.97;;
8895;SDS011;4484;48.928;10.066;2022-11-03T05:31:38;7.73;;;4.83;;
8895;SDS011;4484;48.928;10.066;2022-11-03T05:34:14;6.87;;;4.30;;
8895;SDS011;4484;48.928;10.066;2022-11-03T05:36:59;9.17;;;4.43;;
8895;SDS011;4484;48.928;10.066;2022-11-03T05:39:53;6.10;;;4.20;;
8895;SDS011;4484;48.928;10.066;2022-11-03T05:45:21;6.63;;;4.87;;
8895;SDS011;4484;48.928;10.066;2022-11-03T05:47:51;8.70;;;5.90;;
8895;SDS011;4484;48.928;10.066;2022-11-03T05:50:21;6.70;;;5.50;;
8895;SDS011;4484;48.928;10.066;2022-11-03T05:52:59;8.80;;;5.57;;
8895;SDS011;4484;48.928;10.066;2022-11-03T05:55:38;10.67;;;6.23;;
8895;SDS011;4484;48.928;10.066;2022-11-03T05:58:40;6.50;;;4.67;;
8895;SDS011;4484;48.928;10.066;2022-11-03T06:03:48;7.03;;;3.93;;
8895;SDS011;4484;48.928;10.066;2022-11-03T06:07:00;6.03;;;4.43;;
8895;SDS011;4484;48.928;10.066;2022-11-03T06:09:29;7.63;;;5.33;;
8895;SDS011;4484;48.928;10.066;2022-11-03T06:11:59;9.77;;;4.80;;
8895;SDS011;4484;48.928;10.066;2022-11-03T06:14:30;6.93;;;5.10;;
8895;SDS011;4484;48.928;10.066;2022-11-03T06:17:09;5.43;;;3.43;;
8895;SDS011;4484;48.928;10.066;2022-11-03T06:19:49;6.70;;;3.77;;
8895;SDS011;4484;48.928;10.066;2022-11-03T06:24:53;5.27;;;3.40;;
8895;SDS011;4484;48.928;10.066;2022-11-03T06:27:22;6.33;;;4.30;;
8895;SDS011;4484;48.928;10.066;2022-11-03T06:29:52;5.50;;;4.10;;
8895;SDS011;4484;48.928;10.066;2022-11-03T06:32:25;5.83;;;4.07;;
8895;SDS011;4484;48.928;10.066;2022-11-03T06:34:53;6.57;;;4.27;;
8895;SDS011;4484;48.928;10.066;2022-11-03T06:37:26;5.03;;;3.73;;
8895;SDS011;4484;48.928;10.066;2022-11-03T06:39:59;4.97;;;3.50;;
8895;SDS011;4484;48.928;10.066;2022-11-03T06:42:46;4.93;;;3.50;;
8895;SDS011;4484;48.928;10.066;2022-11-03T06:45:15;6.80;;;4.00;;
8895;SDS011;4484;48.928;10.066;2022-11-03T06:47:46;5.30;;;3.70;;
8895;SDS011;4484;48.928;10.066;2022-11-03T06:50:24;6.40;;;4.63;;
8895;SDS011;4484;48.928;10.066;2022-11-03T06:52:55;6.47;;;4.70;;
8895;SDS011;4484;48.928;10.066;2022-11-03T06:55:44;8.10;;;5.20;;
8895;SDS011;4484;48.928;10.066;2022-11-03T07:00:48;18.00;;;7.60;;
8895;SDS011;4484;48.928;10.066;2022-11-03T07:05:46;14.83;;;7.60;;
8895;SDS011;4484;48.928;10.066;2022-11-03T07:08:30;17.63;;;8.83;;
8895;SDS011;4484;48.928;10.066;2022-11-03T07:11:18;14.67;;;7.80;;
8895;SDS011;4484;48.928;10.066;2022-11-03T07:13:47;13.17;;;7.53;;
8895;SDS011;4484;48.928;10.066;2022-11-03T07:19:12;11.60;;;7.10;;
8895;SDS011;4484;48.928;10.066;2022-11-03T07:22:07;12.33;;;7.13;;
8895;SDS011;4484;48.928;10.066;2022-11-03T07:24:47;10.67;;;6.20;;
8895;SDS011;4484;48.928;10.066;2022-11-03T07:29:51;18.43;;;10.10;;
8895;SDS011;4484;48.928;10.066;2022-11-03T07:32:23;9.50;;;6.40;;
8895;SDS011;4484;48.928;10.066;2022-11-03T07:34:58;17.73;;;8.87;;
8895;SDS011;4484;48.928;10.066;2022-11-03T07:37:47;19.07;;;10.10;;
8895;SDS011;4484;48.928;10.066;2022-11-03T07:40:25;17.50;;;9.80;;
8895;SDS011;4484;48.928;10.066;2022-11-03T07:42:55;28.93;;;13.10;;
8895;SDS011;4484;48.928;10.066;2022-11-03T07:45:52;30.70;;;14.27;;
8895;SDS011;4484;48.928;10.066;2022-11-03T07:48:26;49.03;;;19.23;;
8895;SDS011;4484;48.928;10.066;2022-11-03T07:50:59;64.50;;;24.57;;
8895;SDS011;4484;48.928;10.066;2022-11-03T07:53:35;82.67;;;30.30;;
8895;SDS011;4484;48.928;10.066;2022-11-03T07:58:54;59.03;;;27.13;;
8895;SDS011;4484;48.928;10.066;2022-11-03T08:01:48;46.57;;;23.73;;
8895;SDS011;4484;48.928;10.066;2022-11-03T08:04:25;29.17;;;16.40;;
8895;SDS011;4484;48.928;10.066;2022-11-03T08:06:54;16.67;;;9.83;;
8895;SDS011;4484;48.928;10.066;2022-11-03T08:09:22;15.60;;;7.90;;
8895;SDS011;4484;48.928;10.066;2022-11-03T08:11:49;10.57;;;7.23;;
8895;SDS011;4484;48.928;10.066;2022-11-03T08:14:16;9.93;;;6.57;;
8895;SDS011;4484;48.928;10.066;2022-11-03T08:16:43;9.60;;;6.20;;
8895;SDS011;4484;48.928;10.066;2022-11-03T08:19:10;8.13;;;5.60;;
8895;SDS011;4484;48.928;10.066;2022-11-03T08:21:39;10.03;;;6.17;;
8895;SDS011;4484;48.928;10.066;2022-11-03T08:24:05;8.17;;;5.60;;
8895;SDS011;4484;48.928;10.066;2022-11-03T08:26:32;7.23;;;5.77;;
8895;SDS011;4484;48.928;10.066;2022-11-03T08:28:59;11.23;;;5.70;;
8895;SDS011;4484;48.928;10.066;2022-11-03T08:31:26;9.30;;;5.40;;
8895;SDS011;4484;48.928;10.066;2022-11-03T08:33:53;7.27;;;4.87;;
8895;SDS011;4484;48.928;10.066;2022-11-03T08:36:20;7.70;;;5.00;;
8895;SDS011;4484;48.928;10.066;2022-11-03T08:38:47;8.23;;;5.33;;
8895;SDS011;4484;48.928;10.066;2022-11-03T08:41:14;7.07;;;5.60;;
8895;SDS011;4484;48.928;10.066;2022-11-03T08:43:41;6.50;;;5.10;;
8895;SDS011;4484;48.928;10.066;2022-11-03T08:46:08;6.90;;;5.53;;
8895;SDS011;4484;48.928;10.066;2022-11-03T08:48:43;9.70;;;5.90;;
8895;SDS011;4484;48.928;10.066;2022-11-03T08:51:10;9.10;;;5.90;;
8895;SDS011;4484;48.928;10.066;2022-11-03T08:53:39;6.27;;;5.57;;
8895;SDS011;4484;48.928;10.066;2022-11-03T08:56:08;12.70;;;5.90;;
8895;SDS011;4484;48.928;10.066;2022-11-03T08:58:39;7.77;;;5.40;;
8895;SDS011;4484;48.928;10.066;2022-11-03T09:01:06;8.30;;;5.23;;
8895;SDS011;4484;48.928;10.066;2022-11-03T09:03:34;10.27;;;5.90;;
8895;SDS011;4484;48.928;10.066;2022-11-03T09:06:01;9.13;;;5.60;;
8895;SDS011;4484;48.928;10.066;2022-11-03T09:08:28;7.57;;;5.50;;
8895;SDS011;4484;48.928;10.066;2022-11-03T09:11:15;8.53;;;5.33;;
8895;SDS011;4484;48.928;10.066;2022-11-03T09:13:41;14.13;;;6.30;;
8895;SDS011;4484;48.928;10.066;2022-11-03T09:16:08;13.47;;;5.23;;
8895;SDS011;4484;48.928;10.066;2022-11-03T09:18:35;6.67;;;4.97;;
8895;SDS011;4484;48.928;10.066;2022-11-03T09:21:02;8.07;;;5.10;;
8895;SDS011;4484;48.928;10.066;2022-11-03T09:23:29;11.00;;;4.13;;
8895;SDS011;4484;48.928;10.066;2022-11-03T09:25:56;7.37;;;4.67;;
8895;SDS011;4484;48.928;10.066;2022-11-03T09:28:23;6.47;;;4.77;;
8895;SDS011;4484;48.928;10.066;2022-11-03T09:30:51;6.67;;;4.67;;
8895;SDS011;4484;48.928;10.066;2022-11-03T09:33:18;6.37;;;3.83;;
8895;SDS011;4484;48.928;10.066;2022-11-03T09:35:45;8.27;;;3.60;;
8895;SDS011;4484;48.928;10.066;2022-11-03T09:38:12;6.37;;;4.00;;
8895;SDS011;4484;48.928;10.066;2022-11-03T09:40:39;4.13;;;3.30;;
8895;SDS011;4484;48.928;10.066;2022-11-03T09:43:06;6.20;;;3.67;;
8895;SDS011;4484;48.928;10.066;2022-11-03T09:45:34;5.07;;;3.40;;
8895;SDS011;4484;48.928;10.066;2022-11-03T09:48:01;4.90;;;3.43;;
8895;SDS011;4484;48.928;10.066;2022-11-03T09:50:28;6.50;;;3.70;;
8895;SDS011;4484;48.928;10.066;2022-11-03T09:52:55;5.60;;;3.40;;
8895;SDS011;4484;48.928;10.066;2022-11-03T09:55:24;5.80;;;3.27;;
8895;SDS011;4484;48.928;10.066;2022-11-03T09:57:59;5.50;;;3.03;;
8895;SDS011;4484;48.928;10.066;2022-11-03T10:00:27;4.00;;;2.90;;
8895;SDS011;4484;48.928;10.066;2022-11-03T10:02:54;5.57;;;3.03;;
8895;SDS011;4484;48.928;10.066;2022-11-03T10:05:25;3.17;;;2.20;;
8895;SDS011;4484;48.928;10.066;2022-11-03T10:07:55;3.57;;;2.33;;
8895;SDS011;4484;48.928;10.066;2022-11-03T10:10:25;3.97;;;2.63;;
8895;SDS011;4484;48.928;10.066;2022-11-03T10:12:53;3.50;;;2.20;;
8895;SDS011;4484;48.928;10.066;2022-11-03T10:15:21;5.40;;;2.50;;
8895;SDS011;4484;48.928;10.066;2022-11-03T10:17:49;5.73;;;2.47;;
8895;SDS011;4484;48.928;10.066;2022-11-03T10:20:18;5.50;;;2.43;;
8895;SDS011;4484;48.928;10.066;2022-11-03T10:22:49;4.87;;;2.60;;
8895;SDS011;4484;48.928;10.066;2022-11-03T10:28:12;7.33;;;2.70;;
8895;SDS011;4484;48.928;10.066;2022-11-03T10:30:47;5.33;;;2.67;;
8895;SDS011;4484;48.928;10.066;2022-11-03T10:33:39;5.77;;;2.83;;
8895;SDS011;4484;48.928;10.066;2022-11-03T10:38:43;5.27;;;2.70;;
8895;SDS011;4484;48.928;10.066;2022-11-03T10:46:42;4.00;;;2.73;;
8895;SDS011;4484;48.928;10.066;2022-11-03T10:49:22;4.27;;;2.70;;
8895;SDS011;4484;48.928;10.066;2022-11-03T10:51:51;4.47;;;2.60;;
8895;SDS011;4484;48.928;10.066;2022-11-03T10:54:21;3.63;;;2.60;;
8895;SDS011;4484;48.928;10.066;2022-11-03T10:56:49;6.43;;;2.80;;
8895;SDS011;4484;48.928;10.066;2022-11-03T10:59:18;4.70;;;2.33;;
8895;SDS011;4484;48.928;10.066;2022-11-03T11:01:49;4.90;;;3.00;;
8895;SDS011;4484;48.928;10.066;2022-11-03T11:04:17;4.37;;;3.03;;
8895;SDS011;4484;48.928;10.066;2022-11-03T11:06:46;6.97;;;2.90;;
8895;SDS011;4484;48.928;10.066;2022-11-03T11:09:14;6.37;;;2.77;;
8895;SDS011;4484;48.928;10.066;2022-11-03T11:12:05;5.37;;;2.53;;
8895;SDS011;4484;48.928;10.066;2022-11-03T11:14:54;3.70;;;2.50;;
8895;SDS011;4484;48.928;10.066;2022-11-03T11:22:44;4.63;;;2.40;;
8895;SDS011;4484;48.928;10.066;2022-11-03T11:25:11;5.03;;;3.10;;
8895;SDS011;4484;48.928;10.066;2022-11-03T11:32:57;5.23;;;2.93;;
8895;SDS011;4484;48.928;10.066;2022-11-03T11:37:53;4.73;;;3.07;;
8895;SDS011;4484;48.928;10.066;2022-11-03T11:48:35;4.40;;;2.90;;
8895;SDS011;4484;48.928;10.066;2022-11-03T11:51:02;3.90;;;2.83;;
8895;SDS011;4484;48.928;10.066;2022-11-03T11:53:30;3.70;;;2.50;;
8895;SDS011;4484;48.928;10.066;2022-11-03T11:56:03;4.03;;;2.70;;
8895;SDS011;4484;48.928;10.066;2022-11-03T11:58:39;2.97;;;2.27;;
8895;SDS011;4484;48.928;10.066;2022-11-03T12:03:55;4.17;;;2.33;;
8895;SDS011;4484;48.928;10.066;2022-11-03T12:06:34;3.30;;;2.43;;
8895;SDS011;4484;48.928;10.066;2022-11-03T12:09:13;3.23;;;2.30;;
8895;SDS011;4484;48.928;10.066;2022-11-03T12:16:55;3.67;;;2.63;;
8895;SDS011;4484;48.928;10.066;2022-11-03T12:32:20;4.00;;;2.80;;
8895;SDS011;4484;48.928;10.066;2022-11-03T12:35:00;4.13;;;2.70;;
8895;SDS011;4484;48.928;10.066;2022-11-03T12:37:33;6.00;;;3.57;;
8895;SDS011;4484;48.928;10.066;2022-11-03T12:40:00;4.67;;;3.10;;
8895;SDS011;4484;48.928;10.066;2022-11-03T12:42:27;3.33;;;2.30;;
8895;SDS011;4484;48.928;10.066;2022-11-03T12:44:54;5.37;;;2.80;;
8895;SDS011;4484;48.928;10.066;2022-11-03T12:47:22;4.23;;;3.03;;
8895;SDS011;4484;48.928;10.066;2022-11-03T12:49:49;4.57;;;2.57;;
8895;SDS011;4484;48.928;10.066;2022-11-03T12:52:16;3.93;;;2.57;;
8895;SDS011;4484;48.928;10.066;2022-11-03T12:54:43;5.27;;;2.53;;
8895;SDS011;4484;48.928;10.066;2022-11-03T12:57:10;3.17;;;2.40;;
8895;SDS011;4484;48.928;10.066;2022-11-03T12:59:37;4.97;;;3.23;;
8895;SDS011;4484;48.928;10.066;2022-11-03T13:02:04;6.53;;;2.60;;
8895;SDS011;4484;48.928;10.066;2022-11-03T13:04:31;4.93;;;2.60;;
8895;SDS011;4484;48.928;10.066;2022-11-03T13:06:58;3.17;;;2.10;;
8895;SDS011;4484;48.928;10.066;2022-11-03T13:09:24;3.13;;;2.50;;
8895;SDS011;4484;48.928;10.066;2022-11-03T13:11:51;4.93;;;2.43;;
8895;SDS011;4484;48.928;10.066;2022-11-03T13:14:37;3.93;;;2.33;;
8895;SDS011;4484;48.928;10.066;2022-11-03T13:17:06;4.03;;;2.87;;
8895;SDS011;4484;48.928;10.066;2022-11-03T13:19:33;5.37;;;2.47;;
8895;SDS011;4484;48.928;10.066;2022-11-03T13:22:00;3.07;;;2.67;;
8895;SDS011;4484;48.928;10.066;2022-11-03T13:24:26;3.27;;;2.60;;
8895;SDS011;4484;48.928;10.066;2022-11-03T13:26:54;3.83;;;2.53;;
8895;SDS011;4484;48.928;10.066;2022-11-03T13:29:20;3.77;;;2.93;;
8895;SDS011;4484;48.928;10.066;2022-11-03T13:31:48;5.73;;;3.07;;
8895;SDS011;4484;48.928;10.066;2022-11-03T13:34:14;4.47;;;2.60;;
8895;SDS011;4484;48.928;10.066;2022-11-03T13:36:41;3.23;;;2.60;;
8895;SDS011;4484;48.928;10.066;2022-11-03T13:39:08;4.73;;;3.10;;
8895;SDS011;4484;48.928;10.066;2022-11-03T13:41:35;3.57;;;2.97;;
8895;SDS011;4484;48.928;10.066;2022-11-03T13:44:02;3.53;;;3.00;;
8895;SDS011;4484;48.928;10.066;2022-11-03T13:46:29;3.73;;;3.07;;
8895;SDS011;4484;48.928;10.066;2022-11-03T13:48:55;5.50;;;3.60;;
8895;SDS011;4484;48.928;10.066;2022-11-03T13:51:42;4.00;;;2.97;;
8895;SDS011;4484;48.928;10.066;2022-11-03T13:54:09;7.27;;;3.20;;
8895;SDS011;4484;48.928;10.066;2022-11-03T13:56:56;4.13;;;3.03;;
8895;SDS011;4484;48.928;10.066;2022-11-03T13:59:43;7.07;;;3.10;;
8895;SDS011;4484;48.928;10.066;2022-11-03T14:02:10;4.43;;;2.97;;
8895;SDS011;4484;48.928;10.066;2022-11-03T14:04:57;3.60;;;3.20;;
8895;SDS011;4484;48.928;10.066;2022-11-03T14:07:24;5.07;;;3.40;;
8895;SDS011;4484;48.928;10.066;2022-11-03T14:09:51;4.23;;;3.10;;
8895;SDS011;4484;48.928;10.066;2022-11-03T14:12:18;4.90;;;3.30;;
8895;SDS011;4484;48.928;10.066;2022-11-03T14:15:05;4.63;;;3.33;;
8895;SDS011;4484;48.928;10.066;2022-11-03T14:17:38;4.70;;;3.07;;
8895;SDS011;4484;48.928;10.066;2022-11-03T14:20:17;7.53;;;3.00;;
8895;SDS011;4484;48.928;10.066;2022-11-03T14:22:46;3.77;;;3.07;;
8895;SDS011;4484;48.928;10.066;2022-11-03T14:25:15;5.70;;;3.10;;
8895;SDS011;4484;48.928;10.066;2022-11-03T14:27:42;4.27;;;2.83;;
8895;SDS011;4484;48.928;10.066;2022-11-03T14:30:11;3.37;;;2.83;;
8895;SDS011;4484;48.928;10.066;2022-11-03T14:32:43;6.20;;;3.27;;
8895;SDS011;4484;48.928;10.066;2022-11-03T14:35:17;4.43;;;2.97;;
8895;SDS011;4484;48.928;10.066;2022-11-03T14:37:47;3.90;;;3.10;;
8895;SDS011;4484;48.928;10.066;2022-11-03T14:40:14;3.40;;;3.00;;
8895;SDS011;4484;48.928;10.066;2022-11-03T14:43:01;4.97;;;3.00;;
8895;SDS011;4484;48.928;10.066;2022-11-03T14:45:37;8.93;;;3.37;;
8895;SDS011;4484;48.928;10.066;2022-11-03T14:48:11;5.83;;;3.20;;
8895;SDS011;4484;48.928;10.066;2022-11-03T14:50:38;5.03;;;3.53;;
8895;SDS011;4484;48.928;10.066;2022-11-03T14:53:05;5.53;;;3.40;;
8895;SDS011;4484;48.928;10.066;2022-11-03T14:55:44;6.17;;;3.80;;
8895;SDS011;4484;48.928;10.066;2022-11-03T14:58:12;5.13;;;3.57;;
8895;SDS011;4484;48.928;10.066;2022-11-03T15:00:39;5.60;;;3.97;;
8895;SDS011;4484;48.928;10.066;2022-11-03T15:03:07;6.80;;;3.77;;
8895;SDS011;4484;48.928;10.066;2022-11-03T15:05:34;5.60;;;4.20;;
8895;SDS011;4484;48.928;10.066;2022-11-03T15:08:14;6.30;;;4.37;;
8895;SDS011;4484;48.928;10.066;2022-11-03T15:10:44;6.93;;;4.23;;
8895;SDS011;4484;48.928;10.066;2022-11-03T15:13:13;6.93;;;4.93;;
8895;SDS011;4484;48.928;10.066;2022-11-03T15:15:40;6.43;;;5.10;;
8895;SDS011;4484;48.928;10.066;2022-11-03T15:18:08;7.37;;;4.50;;
8895;SDS011;4484;48.928;10.066;2022-11-03T15:20:35;6.30;;;4.53;;
8895;SDS011;4484;48.928;10.066;2022-11-03T15:23:02;13.40;;;5.27;;
8895;SDS011;4484;48.928;10.066;2022-11-03T15:25:50;6.07;;;4.80;;
8895;SDS011;4484;48.928;10.066;2022-11-03T15:28:18;8.47;;;5.00;;
8895;SDS011;4484;48.928;10.066;2022-11-03T15:30:46;8.13;;;4.70;;
8895;SDS011;4484;48.928;10.066;2022-11-03T15:33:17;6.73;;;5.30;;
8895;SDS011;4484;48.928;10.066;2022-11-03T15:35:43;11.20;;;5.50;;
8895;SDS011;4484;48.928;10.066;2022-11-03T15:38:11;9.37;;;6.17;;
8895;SDS011;4484;48.928;10.066;2022-11-03T15:40:38;6.83;;;5.67;;
8895;SDS011;4484;48.928;10.066;2022-11-03T15:43:09;11.97;;;5.87;;
8895;SDS011;4484;48.928;10.066;2022-11-03T15:45:39;13.67;;;6.47;;
8895;SDS011;4484;48.928;10.066;2022-11-03T15:48:06;7.77;;;6.27;;
8895;SDS011;4484;48.928;10.066;2022-11-03T15:50:34;10.87;;;6.53;;
8895;SDS011;4484;48.928;10.066;2022-11-03T15:53:01;7.70;;;6.20;;
8895;SDS011;4484;48.928;10.066;2022-11-03T15:55:28;10.83;;;6.00;;
8895;SDS011;4484;48.928;10.066;2022-11-03T15:57:55;8.17;;;6.33;;
8895;SDS011;4484;48.928;10.066;2022-11-03T16:00:22;11.43;;;6.00;;
8895;SDS011;4484;48.928;10.066;2022-11-03T16:02:49;8.50;;;6.10;;
8895;SDS011;4484;48.928;10.066;2022-11-03T16:05:17;7.60;;;5.73;;
8895;SDS011;4484;48.928;10.066;2022-11-03T16:07:50;7.57;;;5.57;;
8895;SDS011;4484;48.928;10.066;2022-11-03T16:10:17;10.23;;;6.50;;
8895;SDS011;4484;48.928;10.066;2022-11-03T16:12:44;10.20;;;6.30;;
8895;SDS011;4484;48.928;10.066;2022-11-03T16:15:11;10.57;;;7.03;;
8895;SDS011;4484;48.928;10.066;2022-11-03T16:17:38;9.83;;;5.80;;
8895;SDS011;4484;48.928;10.066;2022-11-03T16:20:10;9.13;;;5.87;;
8895;SDS011;4484;48.928;10.066;2022-11-03T16:22:37;8.67;;;6.10;;
8895;SDS011;4484;48.928;10.066;2022-11-03T16:25:05;8.97;;;6.73;;
8895;SDS011;4484;48.928;10.066;2022-11-03T16:27:39;12.60;;;6.87;;
8895;SDS011;4484;48.928;10.066;2022-11-03T16:30:06;12.00;;;7.33;;
8895;SDS011;4484;48.928;10.066;2022-11-03T16:32:35;12.47;;;7.83;;
8895;SDS011;4484;48.928;10.066;2022-11-03T16:35:02;9.73;;;7.33;;
8895;SDS011;4484;48.928;10.066;2022-11-03T16:37:29;15.03;;;8.83;;
8895;SDS011;4484;48.928;10.066;2022-11-03T16:39:56;13.90;;;9.33;;
8895;SDS011;4484;48.928;10.066;2022-11-03T16:42:23;16.73;;;10.00;;
8895;SDS011;4484;48.928;10.066;2022-11-03T16:44:50;15.80;;;9.27;;
8895;SDS011;4484;48.928;10.066;2022-11-03T16:47:16;14.53;;;9.23;;
8895;SDS011;4484;48.928;10.066;2022-11-03T16:49:43;13.93;;;9.30;;
8895;SDS011;4484;48.928;10.066;2022-11-03T16:52:11;12.37;;;8.77;;
8895;SDS011;4484;48.928;10.066;2022-11-03T16:54:38;11.50;;;8.13;;
8895;SDS011;4484;48.928;10.066;2022-11-03T16:57:04;11.53;;;8.37;;
8895;SDS011;4484;48.928;10.066;2022-11-03T16:59:31;14.43;;;8.47;;
8895;SDS011;4484;48.928;10.066;2022-11-03T17:01:58;9.97;;;8.10;;
8895;SDS011;4484;48.928;10.066;2022-11-03T17:04:25;14.17;;;8.30;;
8895;SDS011;4484;48.928;10.066;2022-11-03T17:06:52;14.77;;;7.70;;